sensor_id;sensor_type;location;lat;lon;timestamp;temperature;humidity
42479;DHT22;28110;47.080;9.476;2023-07-28T00:02:02;18.90;99.90
42479;DHT22;28110;47.080;9.476;2023-07-28T00:04:27;18.90;99.90
42479;DHT22;28110;47.080;9.476;2023-07-28T00:06:53;19.00;99.90
42479;DHT22;28110;47.080;9.476;2023-07-28T00:09:18;18.90;99.90
42479;DHT22;28110;47.080;9.476;2023-07-28T00:11:44;18.80;99.90
42479;DHT22;28110;47.080;9.476;2023-07-28T00:14:09;18.80;99.90
42479;DHT22;28110;47.080;9.476;2023-07-28T00:16:35;18.80;99.90
42479;DHT22;28110;47.080;9.476;2023-07-28T00:19:00;18.80;99.90
42479;DHT22;28110;47.080;9.476;2023-07-28T00:21:26;18.80;99.90
42479;DHT22;28110;47.080;9.476;2023-07-28T00:23:52;19.00;99.90
42479;DHT22;28110;47.080;9.476;2023-07-28T00:26:18;19.00;99.90
42479;DHT22;28110;47.080;9.476;2023-07-28T00:28:43;19.00;99.90
42479;DHT22;28110;47.080;9.476;2023-07-28T00:31:09;18.90;99.90
42479;DHT22;28110;47.080;9.476;2023-07-28T00:33:34;18.90;99.90
42479;DHT22;28110;47.080;9.476;2023-07-28T00:36:00;18.90;99.90
42479;DHT22;28110;47.080;9.476;2023-07-28T00:38:25;18.90;99.90
42479;DHT22;28110;47.080;9.476;2023-07-28T00:40:51;18.90;99.90
42479;DHT22;28110;47.080;9.476;2023-07-28T00:43:16;18.90;99.90
42479;DHT22;28110;47.080;9.476;2023-07-28T00:45:43;19.00;99.90
42479;DHT22;28110;47.080;9.476;2023-07-28T00:48:12;19.00;99.90
42479;DHT22;28110;47.080;9.476;2023-07-28T00:50:44;19.10;99.90
42479;DHT22;28110;47.080;9.476;2023-07-28T00:53:10;19.10;99.90
42479;DHT22;28110;47.080;9.476;2023-07-28T00:55:36;19.10;99.90
42479;DHT22;28110;47.080;9.476;2023-07-28T00:58:02;19.10;99.90
42479;DHT22;28110;47.080;9.476;2023-07-28T01:00:28;19.10;99.90
42479;DHT22;28110;47.080;9.476;2023-07-28T01:02:53;19.00;99.90
42479;DHT22;28110;47.080;9.476;2023-07-28T01:05:21;18.90;99.90
42479;DHT22;28110;47.080;9.476;2023-07-28T01:08:02;18.70;99.90
42479;DHT22;28110;47.080;9.476;2023-07-28T01:10:32;18.70;99.90
42479;DHT22;28110;47.080;9.476;2023-07-28T01:12:58;18.60;99.90
42479;DHT22;28110;47.080;9.476;2023-07-28T01:15:24;18.60;99.90
42479;DHT22;28110;47.080;9.476;2023-07-28T01:17:50;18.60;99.90
42479;DHT22;28110;47.080;9.476;2023-07-28T01:20:16;18.60;99.90
42479;DHT22;28110;47.080;9.476;2023-07-28T01:27:52;18.70;99.90
42479;DHT22;28110;47.080;9.476;2023-07-28T01:30:19;18.70;99.90
42479;DHT22;28110;47.080;9.476;2023-07-28T01:32:47;18.70;99.90
42479;DHT22;28110;47.080;9.476;2023-07-28T01:35:12;18.70;99.90
42479;DHT22;28110;47.080;9.476;2023-07-28T01:37:38;18.60;99.90
42479;DHT22;28110;47.080;9.476;2023-07-28T01:40:04;18.60;99.90
42479;DHT22;28110;47.080;9.476;2023-07-28T01:42:30;18.60;99.90
42479;DHT22;28110;47.080;9.476;2023-07-28T01:44:55;18.70;99.90
42479;DHT22;28110;47.080;9.476;2023-07-28T01:47:21;18.70;99.90
42479;DHT22;28110;47.080;9.476;2023-07-28T01:49:46;18.80;99.90
42479;DHT22;28110;47.080;9.476;2023-07-28T01:52:12;18.90;99.90
42479;DHT22;28110;47.080;9.476;2023-07-28T01:54:37;18.90;99.90
42479;DHT22;28110;47.080;9.476;2023-07-28T01:57:03;19.00;99.90
42479;DHT22;28110;47.080;9.476;2023-07-28T01:59:29;19.00;99.90
42479;DHT22;28110;47.080;9.476;2023-07-28T02:01:54;19.00;99.90
42479;DHT22;28110;47.080;9.476;2023-07-28T02:04:20;18.90;99.90
42479;DHT22;28110;47.080;9.476;2023-07-28T02:06:45;18.90;99.90
42479;DHT22;28110;47.080;9.476;2023-07-28T02:09:11;18.90;99.90
42479;DHT22;28110;47.080;9.476;2023-07-28T02:11:36;18.90;99.90
42479;DHT22;28110;47.080;9.476;2023-07-28T02:14:02;19.00;99.90
42479;DHT22;28110;47.080;9.476;2023-07-28T02:16:28;19.10;99.90
42479;DHT22;28110;47.080;9.476;2023-07-28T02:18:56;19.10;99.90
42479;DHT22;28110;47.080;9.476;2023-07-28T02:21:22;19.10;99.90
42479;DHT22;28110;47.080;9.476;2023-07-28T02:23:48;19.10;99.90
42479;DHT22;28110;47.080;9.476;2023-07-28T02:26:14;19.10;99.90
42479;DHT22;28110;47.080;9.476;2023-07-28T02:28:40;19.20;99.90
42479;DHT22;28110;47.080;9.476;2023-07-28T02:31:05;19.20;99.90
42479;DHT22;28110;47.080;9.476;2023-07-28T02:33:30;19.20;99.90
42479;DHT22;28110;47.080;9.476;2023-07-28T02:36:00;19.10;99.90
42479;DHT22;28110;47.080;9.476;2023-07-28T02:38:26;19.20;99.90
42479;DHT22;28110;47.080;9.476;2023-07-28T02:40:51;19.10;99.90
42479;DHT22;28110;47.080;9.476;2023-07-28T02:43:17;19.10;99.90
42479;DHT22;28110;47.080;9.476;2023-07-28T02:45:42;19.20;99.90
42479;DHT22;28110;47.080;9.476;2023-07-28T02:48:08;19.30;99.90
42479;DHT22;28110;47.080;9.476;2023-07-28T02:50:33;19.30;99.90
42479;DHT22;28110;47.080;9.476;2023-07-28T02:52:59;19.20;99.90
42479;DHT22;28110;47.080;9.476;2023-07-28T02:55:25;19.20;99.90
42479;DHT22;28110;47.080;9.476;2023-07-28T02:57:50;19.30;99.90
42479;DHT22;28110;47.080;9.476;2023-07-28T03:00:16;19.30;99.90
42479;DHT22;28110;47.080;9.476;2023-07-28T03:02:41;19.20;99.90
42479;DHT22;28110;47.080;9.476;2023-07-28T03:05:07;19.20;99.90
42479;DHT22;28110;47.080;9.476;2023-07-28T03:07:32;19.10;99.90
42479;DHT22;28110;47.080;9.476;2023-07-28T03:09:58;19.00;99.90
42479;DHT22;28110;47.080;9.476;2023-07-28T03:12:24;19.00;99.90
42479;DHT22;28110;47.080;9.476;2023-07-28T03:14:49;19.10;99.90
42479;DHT22;28110;47.080;9.476;2023-07-28T03:17:15;19.20;99.90
42479;DHT22;28110;47.080;9.476;2023-07-28T03:19:40;19.20;99.90
42479;DHT22;28110;47.080;9.476;2023-07-28T03:22:06;19.20;99.90
42479;DHT22;28110;47.080;9.476;2023-07-28T03:24:31;19.30;99.90
42479;DHT22;28110;47.080;9.476;2023-07-28T03:26:57;19.30;99.90
42479;DHT22;28110;47.080;9.476;2023-07-28T03:29:22;19.30;99.90
42479;DHT22;28110;47.080;9.476;2023-07-28T03:31:48;19.20;99.90
42479;DHT22;28110;47.080;9.476;2023-07-28T03:34:13;19.10;99.90
42479;DHT22;28110;47.080;9.476;2023-07-28T03:36:39;19.00;99.90
42479;DHT22;28110;47.080;9.476;2023-07-28T03:39:04;18.90;99.90
42479;DHT22;28110;47.080;9.476;2023-07-28T03:41:30;18.90;99.90
42479;DHT22;28110;47.080;9.476;2023-07-28T03:43:56;18.80;99.90
42479;DHT22;28110;47.080;9.476;2023-07-28T03:46:21;18.70;99.90
42479;DHT22;28110;47.080;9.476;2023-07-28T03:48:47;18.70;99.90
42479;DHT22;28110;47.080;9.476;2023-07-28T03:51:12;18.60;99.90
42479;DHT22;28110;47.080;9.476;2023-07-28T03:53:38;18.60;99.90
42479;DHT22;28110;47.080;9.476;2023-07-28T03:56:04;18.50;99.90
42479;DHT22;28110;47.080;9.476;2023-07-28T03:58:29;18.40;99.90
42479;DHT22;28110;47.080;9.476;2023-07-28T04:00:55;18.30;99.90
42479;DHT22;28110;47.080;9.476;2023-07-28T04:03:21;18.20;99.90
42479;DHT22;28110;47.080;9.476;2023-07-28T04:05:46;18.10;99.90
42479;DHT22;28110;47.080;9.476;2023-07-28T04:08:12;18.00;99.90
42479;DHT22;28110;47.080;9.476;2023-07-28T04:10:37;18.00;99.90
42479;DHT22;28110;47.080;9.476;2023-07-28T04:13:03;17.90;99.90
42479;DHT22;28110;47.080;9.476;2023-07-28T04:15:28;17.80;99.90
42479;DHT22;28110;47.080;9.476;2023-07-28T04:17:54;17.80;99.90
42479;DHT22;28110;47.080;9.476;2023-07-28T04:20:19;17.70;99.90
42479;DHT22;28110;47.080;9.476;2023-07-28T04:22:45;17.70;99.90
42479;DHT22;28110;47.080;9.476;2023-07-28T04:25:11;17.60;99.90
42479;DHT22;28110;47.080;9.476;2023-07-28T04:27:36;17.60;99.90
42479;DHT22;28110;47.080;9.476;2023-07-28T04:30:02;17.60;99.90
42479;DHT22;28110;47.080;9.476;2023-07-28T04:32:28;17.70;99.90
42479;DHT22;28110;47.080;9.476;2023-07-28T04:34:53;17.70;99.90
42479;DHT22;28110;47.080;9.476;2023-07-28T04:37:19;17.80;99.90
42479;DHT22;28110;47.080;9.476;2023-07-28T04:39:44;17.90;99.90
42479;DHT22;28110;47.080;9.476;2023-07-28T04:42:10;18.00;99.90
42479;DHT22;28110;47.080;9.476;2023-07-28T04:44:38;18.10;99.90
42479;DHT22;28110;47.080;9.476;2023-07-28T04:47:05;18.10;99.90
42479;DHT22;28110;47.080;9.476;2023-07-28T04:49:30;18.10;99.90
42479;DHT22;28110;47.080;9.476;2023-07-28T04:51:56;18.10;99.90
42479;DHT22;28110;47.080;9.476;2023-07-28T04:54:21;18.10;99.90
42479;DHT22;28110;47.080;9.476;2023-07-28T04:56:47;18.20;99.90
42479;DHT22;28110;47.080;9.476;2023-07-28T04:59:15;18.20;99.90
42479;DHT22;28110;47.080;9.476;2023-07-28T05:01:40;18.10;99.90
42479;DHT22;28110;47.080;9.476;2023-07-28T05:04:06;18.10;99.90
42479;DHT22;28110;47.080;9.476;2023-07-28T05:06:31;18.10;99.90
42479;DHT22;28110;47.080;9.476;2023-07-28T05:08:57;18.10;99.90
42479;DHT22;28110;47.080;9.476;2023-07-28T05:11:22;18.20;99.90
42479;DHT22;28110;47.080;9.476;2023-07-28T05:13:48;18.30;99.90
42479;DHT22;28110;47.080;9.476;2023-07-28T05:16:13;18.40;99.90
42479;DHT22;28110;47.080;9.476;2023-07-28T05:18:39;18.40;99.90
42479;DHT22;28110;47.080;9.476;2023-07-28T05:21:08;18.40;99.90
42479;DHT22;28110;47.080;9.476;2023-07-28T05:23:33;18.50;99.90
42479;DHT22;28110;47.080;9.476;2023-07-28T05:25:59;18.60;99.90
42479;DHT22;28110;47.080;9.476;2023-07-28T05:28:24;18.50;99.90
42479;DHT22;28110;47.080;9.476;2023-07-28T05:30:50;18.60;99.90
42479;DHT22;28110;47.080;9.476;2023-07-28T05:33:15;18.70;99.90
42479;DHT22;28110;47.080;9.476;2023-07-28T05:35:41;18.70;99.90
42479;DHT22;28110;47.080;9.476;2023-07-28T05:38:06;18.70;99.90
42479;DHT22;28110;47.080;9.476;2023-07-28T05:40:33;18.70;99.90
42479;DHT22;28110;47.080;9.476;2023-07-28T05:42:58;18.70;99.90
42479;DHT22;28110;47.080;9.476;2023-07-28T05:45:24;18.70;99.90
42479;DHT22;28110;47.080;9.476;2023-07-28T05:47:49;18.70;99.90
42479;DHT22;28110;47.080;9.476;2023-07-28T05:50:15;18.70;99.90
42479;DHT22;28110;47.080;9.476;2023-07-28T05:52:40;18.80;99.90
42479;DHT22;28110;47.080;9.476;2023-07-28T05:55:06;18.80;99.90
42479;DHT22;28110;47.080;9.476;2023-07-28T05:57:32;18.80;99.90
42479;DHT22;28110;47.080;9.476;2023-07-28T05:59:57;18.80;99.90
42479;DHT22;28110;47.080;9.476;2023-07-28T06:02:23;18.80;99.90
42479;DHT22;28110;47.080;9.476;2023-07-28T06:04:49;18.80;99.90
42479;DHT22;28110;47.080;9.476;2023-07-28T06:07:14;18.90;99.90
42479;DHT22;28110;47.080;9.476;2023-07-28T06:09:40;18.90;99.90
42479;DHT22;28110;47.080;9.476;2023-07-28T06:12:05;18.90;99.90
42479;DHT22;28110;47.080;9.476;2023-07-28T06:14:31;18.90;99.90
42479;DHT22;28110;47.080;9.476;2023-07-28T06:16:56;18.90;99.90
42479;DHT22;28110;47.080;9.476;2023-07-28T06:19:22;18.90;99.90
42479;DHT22;28110;47.080;9.476;2023-07-28T06:21:52;18.90;99.90
42479;DHT22;28110;47.080;9.476;2023-07-28T06:24:18;18.90;99.90
42479;DHT22;28110;47.080;9.476;2023-07-28T06:26:44;18.90;99.90
42479;DHT22;28110;47.080;9.476;2023-07-28T06:29:10;18.80;99.90
42479;DHT22;28110;47.080;9.476;2023-07-28T06:31:35;18.80;99.90
42479;DHT22;28110;47.080;9.476;2023-07-28T06:34:01;18.80;99.90
42479;DHT22;28110;47.080;9.476;2023-07-28T06:36:26;18.90;99.90
42479;DHT22;28110;47.080;9.476;2023-07-28T06:38:52;18.90;99.90
42479;DHT22;28110;47.080;9.476;2023-07-28T06:41:20;18.90;99.90
42479;DHT22;28110;47.080;9.476;2023-07-28T06:43:46;18.90;99.90
42479;DHT22;28110;47.080;9.476;2023-07-28T06:46:13;18.90;99.90
42479;DHT22;28110;47.080;9.476;2023-07-28T06:48:39;18.90;99.90
42479;DHT22;28110;47.080;9.476;2023-07-28T06:51:04;18.90;99.90
42479;DHT22;28110;47.080;9.476;2023-07-28T06:53:31;18.90;99.90
42479;DHT22;28110;47.080;9.476;2023-07-28T06:55:56;19.00;99.90
42479;DHT22;28110;47.080;9.476;2023-07-28T06:58:22;19.00;99.90
42479;DHT22;28110;47.080;9.476;2023-07-28T07:00:48;19.10;99.90
42479;DHT22;28110;47.080;9.476;2023-07-28T07:03:13;19.10;99.90
42479;DHT22;28110;47.080;9.476;2023-07-28T07:05:39;19.20;99.90
42479;DHT22;28110;47.080;9.476;2023-07-28T07:08:05;19.20;99.90
42479;DHT22;28110;47.080;9.476;2023-07-28T07:10:31;19.30;99.90
42479;DHT22;28110;47.080;9.476;2023-07-28T07:12:56;19.40;99.90
42479;DHT22;28110;47.080;9.476;2023-07-28T07:15:22;19.40;99.90
42479;DHT22;28110;47.080;9.476;2023-07-28T07:17:47;19.50;99.90
42479;DHT22;28110;47.080;9.476;2023-07-28T07:20:13;19.60;99.90
42479;DHT22;28110;47.080;9.476;2023-07-28T07:22:38;19.60;99.90
42479;DHT22;28110;47.080;9.476;2023-07-28T07:25:04;19.60;99.90
42479;DHT22;28110;47.080;9.476;2023-07-28T07:27:30;19.90;99.90
42479;DHT22;28110;47.080;9.476;2023-07-28T07:29:55;20.20;99.90
42479;DHT22;28110;47.080;9.476;2023-07-28T07:32:21;20.50;99.90
42479;DHT22;28110;47.080;9.476;2023-07-28T07:34:46;20.90;99.90
42479;DHT22;28110;47.080;9.476;2023-07-28T07:37:12;21.30;99.90
42479;DHT22;28110;47.080;9.476;2023-07-28T07:39:38;21.70;99.90
42479;DHT22;28110;47.080;9.476;2023-07-28T07:42:06;22.00;99.90
42479;DHT22;28110;47.080;9.476;2023-07-28T07:44:32;22.20;99.90
42479;DHT22;28110;47.080;9.476;2023-07-28T07:47:00;22.20;99.90
42479;DHT22;28110;47.080;9.476;2023-07-28T07:49:27;22.10;99.90
42479;DHT22;28110;47.080;9.476;2023-07-28T07:51:53;22.00;99.90
42479;DHT22;28110;47.080;9.476;2023-07-28T07:54:18;22.00;99.90
42479;DHT22;28110;47.080;9.476;2023-07-28T07:56:44;21.80;99.90
42479;DHT22;28110;47.080;9.476;2023-07-28T07:59:12;21.80;99.90
42479;DHT22;28110;47.080;9.476;2023-07-28T08:01:37;21.70;99.90
42479;DHT22;28110;47.080;9.476;2023-07-28T08:04:03;21.70;99.90
42479;DHT22;28110;47.080;9.476;2023-07-28T08:06:28;21.70;99.90
42479;DHT22;28110;47.080;9.476;2023-07-28T08:08:54;21.60;99.90
42479;DHT22;28110;47.080;9.476;2023-07-28T08:11:22;21.60;99.90
42479;DHT22;28110;47.080;9.476;2023-07-28T08:13:47;21.60;99.90
42479;DHT22;28110;47.080;9.476;2023-07-28T08:16:13;21.60;99.90
42479;DHT22;28110;47.080;9.476;2023-07-28T08:18:39;21.60;99.90
42479;DHT22;28110;47.080;9.476;2023-07-28T08:21:05;21.80;99.90
42479;DHT22;28110;47.080;9.476;2023-07-28T08:23:30;21.90;99.90
42479;DHT22;28110;47.080;9.476;2023-07-28T08:25:56;22.00;99.90
42479;DHT22;28110;47.080;9.476;2023-07-28T08:28:21;22.00;99.90
42479;DHT22;28110;47.080;9.476;2023-07-28T08:30:54;22.00;99.90
42479;DHT22;28110;47.080;9.476;2023-07-28T08:33:21;22.00;99.90
42479;DHT22;28110;47.080;9.476;2023-07-28T08:35:47;22.00;99.90
42479;DHT22;28110;47.080;9.476;2023-07-28T08:38:13;22.10;99.90
42479;DHT22;28110;47.080;9.476;2023-07-28T08:40:39;21.90;99.90
42479;DHT22;28110;47.080;9.476;2023-07-28T08:43:05;21.90;99.90
42479;DHT22;28110;47.080;9.476;2023-07-28T08:45:31;22.00;99.90
42479;DHT22;28110;47.080;9.476;2023-07-28T08:47:56;22.00;99.90
42479;DHT22;28110;47.080;9.476;2023-07-28T08:50:22;22.10;99.90
42479;DHT22;28110;47.080;9.476;2023-07-28T08:52:48;22.20;99.90
42479;DHT22;28110;47.080;9.476;2023-07-28T08:55:15;22.50;99.90
42479;DHT22;28110;47.080;9.476;2023-07-28T08:57:42;22.80;99.90
42479;DHT22;28110;47.080;9.476;2023-07-28T09:00:09;23.00;99.90
42479;DHT22;28110;47.080;9.476;2023-07-28T09:02:36;23.20;99.90
42479;DHT22;28110;47.080;9.476;2023-07-28T09:05:03;23.30;99.90
42479;DHT22;28110;47.080;9.476;2023-07-28T09:07:36;23.40;99.90
42479;DHT22;28110;47.080;9.476;2023-07-28T09:10:02;23.40;99.90
42479;DHT22;28110;47.080;9.476;2023-07-28T09:12:31;23.50;99.90
42479;DHT22;28110;47.080;9.476;2023-07-28T09:14:57;23.60;99.90
42479;DHT22;28110;47.080;9.476;2023-07-28T09:17:23;23.70;99.90
42479;DHT22;28110;47.080;9.476;2023-07-28T09:19:55;23.70;99.90
42479;DHT22;28110;47.080;9.476;2023-07-28T09:22:21;23.90;99.90
42479;DHT22;28110;47.080;9.476;2023-07-28T09:24:47;24.10;99.90
42479;DHT22;28110;47.080;9.476;2023-07-28T09:27:25;24.30;99.90
42479;DHT22;28110;47.080;9.476;2023-07-28T09:29:53;24.60;99.90
42479;DHT22;28110;47.080;9.476;2023-07-28T09:32:30;24.60;99.90
42479;DHT22;28110;47.080;9.476;2023-07-28T09:35:18;24.60;99.90
42479;DHT22;28110;47.080;9.476;2023-07-28T09:37:47;24.60;99.90
42479;DHT22;28110;47.080;9.476;2023-07-28T09:40:15;24.70;99.90
42479;DHT22;28110;47.080;9.476;2023-07-28T09:42:42;24.80;99.90
42479;DHT22;28110;47.080;9.476;2023-07-28T09:45:10;24.90;99.90
42479;DHT22;28110;47.080;9.476;2023-07-28T09:47:37;24.90;99.90
42479;DHT22;28110;47.080;9.476;2023-07-28T09:50:08;24.90;99.90
42479;DHT22;28110;47.080;9.476;2023-07-28T09:52:39;24.90;99.90
42479;DHT22;28110;47.080;9.476;2023-07-28T09:55:08;24.90;99.90
42479;DHT22;28110;47.080;9.476;2023-07-28T09:57:39;24.80;99.90
42479;DHT22;28110;47.080;9.476;2023-07-28T10:00:08;24.70;99.90
42479;DHT22;28110;47.080;9.476;2023-07-28T10:02:36;24.80;99.90
42479;DHT22;28110;47.080;9.476;2023-07-28T10:05:02;24.80;99.90
42479;DHT22;28110;47.080;9.476;2023-07-28T10:07:28;24.80;99.90
42479;DHT22;28110;47.080;9.476;2023-07-28T10:09:54;24.80;99.90
42479;DHT22;28110;47.080;9.476;2023-07-28T10:12:26;24.70;99.90
42479;DHT22;28110;47.080;9.476;2023-07-28T10:15:03;24.80;99.90
42479;DHT22;28110;47.080;9.476;2023-07-28T10:17:34;24.80;99.90
42479;DHT22;28110;47.080;9.476;2023-07-28T10:20:06;24.90;99.90
42479;DHT22;28110;47.080;9.476;2023-07-28T10:22:46;24.80;99.90
42479;DHT22;28110;47.080;9.476;2023-07-28T10:25:12;24.70;99.90
42479;DHT22;28110;47.080;9.476;2023-07-28T10:27:44;24.80;99.90
42479;DHT22;28110;47.080;9.476;2023-07-28T10:30:12;24.80;99.90
42479;DHT22;28110;47.080;9.476;2023-07-28T10:32:42;24.80;99.90
42479;DHT22;28110;47.080;9.476;2023-07-28T10:37:46;24.90;99.90
42479;DHT22;28110;47.080;9.476;2023-07-28T10:40:30;24.90;99.90
42479;DHT22;28110;47.080;9.476;2023-07-28T10:42:57;24.90;99.90
42479;DHT22;28110;47.080;9.476;2023-07-28T10:45:25;25.00;99.90
42479;DHT22;28110;47.080;9.476;2023-07-28T10:47:51;25.20;99.90
42479;DHT22;28110;47.080;9.476;2023-07-28T10:50:18;25.50;99.90
42479;DHT22;28110;47.080;9.476;2023-07-28T10:52:45;25.60;99.90
42479;DHT22;28110;47.080;9.476;2023-07-28T10:55:21;25.80;99.90
42479;DHT22;28110;47.080;9.476;2023-07-28T10:57:48;25.80;99.90
42479;DHT22;28110;47.080;9.476;2023-07-28T11:00:17;25.80;99.90
42479;DHT22;28110;47.080;9.476;2023-07-28T11:02:43;25.60;99.90
42479;DHT22;28110;47.080;9.476;2023-07-28T11:05:11;25.50;99.90
42479;DHT22;28110;47.080;9.476;2023-07-28T11:07:40;25.40;99.90
42479;DHT22;28110;47.080;9.476;2023-07-28T11:10:07;25.50;99.90
42479;DHT22;28110;47.080;9.476;2023-07-28T11:12:33;25.40;99.90
42479;DHT22;28110;47.080;9.476;2023-07-28T11:14:58;25.40;99.90
42479;DHT22;28110;47.080;9.476;2023-07-28T11:17:25;25.50;99.90
42479;DHT22;28110;47.080;9.476;2023-07-28T11:19:52;25.60;99.90
42479;DHT22;28110;47.080;9.476;2023-07-28T11:22:18;25.60;99.90
42479;DHT22;28110;47.080;9.476;2023-07-28T11:24:44;25.70;99.90
42479;DHT22;28110;47.080;9.476;2023-07-28T11:27:10;25.70;99.90
42479;DHT22;28110;47.080;9.476;2023-07-28T11:29:36;25.70;99.90
42479;DHT22;28110;47.080;9.476;2023-07-28T11:32:01;25.80;99.90
42479;DHT22;28110;47.080;9.476;2023-07-28T11:34:27;25.90;99.90
42479;DHT22;28110;47.080;9.476;2023-07-28T11:36:53;26.00;99.90
42479;DHT22;28110;47.080;9.476;2023-07-28T11:39:19;26.10;99.90
42479;DHT22;28110;47.080;9.476;2023-07-28T11:41:47;26.10;99.90
42479;DHT22;28110;47.080;9.476;2023-07-28T11:44:14;26.20;99.90
42479;DHT22;28110;47.080;9.476;2023-07-28T11:46:42;26.20;99.90
42479;DHT22;28110;47.080;9.476;2023-07-28T11:49:12;26.20;99.90
42479;DHT22;28110;47.080;9.476;2023-07-28T11:51:43;26.30;99.90
42479;DHT22;28110;47.080;9.476;2023-07-28T11:54:13;26.40;99.90
42479;DHT22;28110;47.080;9.476;2023-07-28T11:56:43;26.50;99.90
42479;DHT22;28110;47.080;9.476;2023-07-28T11:59:09;26.60;99.90
42479;DHT22;28110;47.080;9.476;2023-07-28T12:01:49;26.60;99.90
42479;DHT22;28110;47.080;9.476;2023-07-28T12:04:26;26.60;99.90
42479;DHT22;28110;47.080;9.476;2023-07-28T12:07:08;26.50;99.90
42479;DHT22;28110;47.080;9.476;2023-07-28T12:09:47;26.40;99.90
42479;DHT22;28110;47.080;9.476;2023-07-28T12:12:22;26.30;99.90
42479;DHT22;28110;47.080;9.476;2023-07-28T12:14:48;26.20;99.90
42479;DHT22;28110;47.080;9.476;2023-07-28T12:17:18;26.30;99.90
42479;DHT22;28110;47.080;9.476;2023-07-28T12:20:05;26.20;99.90
42479;DHT22;28110;47.080;9.476;2023-07-28T12:22:40;26.20;99.90
42479;DHT22;28110;47.080;9.476;2023-07-28T12:25:06;26.20;99.90
42479;DHT22;28110;47.080;9.476;2023-07-28T12:27:32;26.20;99.90
42479;DHT22;28110;47.080;9.476;2023-07-28T12:29:57;26.30;99.90
42479;DHT22;28110;47.080;9.476;2023-07-28T12:32:23;26.30;99.90
42479;DHT22;28110;47.080;9.476;2023-07-28T12:34:50;26.30;99.90
42479;DHT22;28110;47.080;9.476;2023-07-28T12:37:16;26.30;99.90
42479;DHT22;28110;47.080;9.476;2023-07-28T12:39:41;26.20;99.90
42479;DHT22;28110;47.080;9.476;2023-07-28T12:42:08;26.20;99.90
42479;DHT22;28110;47.080;9.476;2023-07-28T12:44:35;26.10;99.90
42479;DHT22;28110;47.080;9.476;2023-07-28T12:47:01;26.10;99.90
42479;DHT22;28110;47.080;9.476;2023-07-28T12:49:27;26.30;99.90
42479;DHT22;28110;47.080;9.476;2023-07-28T12:51:54;26.50;99.90
42479;DHT22;28110;47.080;9.476;2023-07-28T12:54:24;26.50;99.90
42479;DHT22;28110;47.080;9.476;2023-07-28T12:56:51;26.60;99.90
42479;DHT22;28110;47.080;9.476;2023-07-28T12:59:17;26.50;99.90
42479;DHT22;28110;47.080;9.476;2023-07-28T13:01:42;26.50;99.90
42479;DHT22;28110;47.080;9.476;2023-07-28T13:04:08;26.60;99.90
42479;DHT22;28110;47.080;9.476;2023-07-28T13:06:34;26.70;99.90
42479;DHT22;28110;47.080;9.476;2023-07-28T13:08:59;26.80;99.90
42479;DHT22;28110;47.080;9.476;2023-07-28T13:11:25;26.90;99.90
42479;DHT22;28110;47.080;9.476;2023-07-28T13:13:50;27.00;99.90
42479;DHT22;28110;47.080;9.476;2023-07-28T13:16:16;27.00;99.90
42479;DHT22;28110;47.080;9.476;2023-07-28T13:18:43;27.10;99.90
42479;DHT22;28110;47.080;9.476;2023-07-28T13:21:08;27.20;99.90
42479;DHT22;28110;47.080;9.476;2023-07-28T13:23:35;27.20;99.90
42479;DHT22;28110;47.080;9.476;2023-07-28T13:26:01;27.10;99.90
42479;DHT22;28110;47.080;9.476;2023-07-28T13:28:29;27.20;99.90
42479;DHT22;28110;47.080;9.476;2023-07-28T13:30:55;27.20;99.90
42479;DHT22;28110;47.080;9.476;2023-07-28T13:33:20;27.20;99.90
42479;DHT22;28110;47.080;9.476;2023-07-28T13:35:46;27.00;99.90
42479;DHT22;28110;47.080;9.476;2023-07-28T13:38:12;26.90;99.90
42479;DHT22;28110;47.080;9.476;2023-07-28T13:40:37;26.80;99.90
42479;DHT22;28110;47.080;9.476;2023-07-28T13:43:03;26.80;99.90
42479;DHT22;28110;47.080;9.476;2023-07-28T13:45:29;26.80;99.90
42479;DHT22;28110;47.080;9.476;2023-07-28T13:47:55;26.70;99.90
42479;DHT22;28110;47.080;9.476;2023-07-28T13:50:20;26.70;99.90
42479;DHT22;28110;47.080;9.476;2023-07-28T13:52:46;26.80;99.90
42479;DHT22;28110;47.080;9.476;2023-07-28T13:55:11;26.80;99.90
42479;DHT22;28110;47.080;9.476;2023-07-28T13:57:37;26.90;99.90
42479;DHT22;28110;47.080;9.476;2023-07-28T14:00:03;26.80;99.90
42479;DHT22;28110;47.080;9.476;2023-07-28T14:02:31;26.80;99.90
42479;DHT22;28110;47.080;9.476;2023-07-28T14:04:57;26.80;99.90
42479;DHT22;28110;47.080;9.476;2023-07-28T14:07:22;26.80;99.90
42479;DHT22;28110;47.080;9.476;2023-07-28T14:09:48;26.70;99.90
42479;DHT22;28110;47.080;9.476;2023-07-28T14:12:13;26.70;99.90
42479;DHT22;28110;47.080;9.476;2023-07-28T14:14:39;26.80;99.90
42479;DHT22;28110;47.080;9.476;2023-07-28T14:17:05;26.90;99.90
42479;DHT22;28110;47.080;9.476;2023-07-28T14:19:30;26.90;99.90
42479;DHT22;28110;47.080;9.476;2023-07-28T14:21:56;26.90;99.90
42479;DHT22;28110;47.080;9.476;2023-07-28T14:24:21;26.90;99.90
42479;DHT22;28110;47.080;9.476;2023-07-28T14:26:47;26.80;99.90
42479;DHT22;28110;47.080;9.476;2023-07-28T14:29:12;26.80;99.90
42479;DHT22;28110;47.080;9.476;2023-07-28T14:31:38;26.70;99.90
42479;DHT22;28110;47.080;9.476;2023-07-28T14:34:03;26.70;99.90
42479;DHT22;28110;47.080;9.476;2023-07-28T14:36:29;26.70;99.90
42479;DHT22;28110;47.080;9.476;2023-07-28T14:38:54;26.70;99.90
42479;DHT22;28110;47.080;9.476;2023-07-28T14:41:20;26.70;99.90
42479;DHT22;28110;47.080;9.476;2023-07-28T14:43:45;26.70;99.90
42479;DHT22;28110;47.080;9.476;2023-07-28T14:46:11;26.70;99.90
42479;DHT22;28110;47.080;9.476;2023-07-28T14:48:36;26.70;99.90
42479;DHT22;28110;47.080;9.476;2023-07-28T14:51:02;26.80;99.90
42479;DHT22;28110;47.080;9.476;2023-07-28T14:53:38;26.80;99.90
42479;DHT22;28110;47.080;9.476;2023-07-28T14:56:05;26.80;99.90
42479;DHT22;28110;47.080;9.476;2023-07-28T14:58:31;26.80;99.90
42479;DHT22;28110;47.080;9.476;2023-07-28T15:00:58;26.80;99.90
42479;DHT22;28110;47.080;9.476;2023-07-28T15:03:26;26.90;99.90
42479;DHT22;28110;47.080;9.476;2023-07-28T15:05:52;27.00;99.90
42479;DHT22;28110;47.080;9.476;2023-07-28T15:08:18;27.10;99.90
42479;DHT22;28110;47.080;9.476;2023-07-28T15:10:43;27.10;99.90
42479;DHT22;28110;47.080;9.476;2023-07-28T15:13:09;27.00;99.90
42479;DHT22;28110;47.080;9.476;2023-07-28T15:15:35;27.00;99.90
42479;DHT22;28110;47.080;9.476;2023-07-28T15:18:00;26.90;99.90
42479;DHT22;28110;47.080;9.476;2023-07-28T15:20:26;27.00;99.90
42479;DHT22;28110;47.080;9.476;2023-07-28T15:22:51;27.00;99.90
42479;DHT22;28110;47.080;9.476;2023-07-28T15:25:17;27.00;99.90
42479;DHT22;28110;47.080;9.476;2023-07-28T15:27:42;27.00;99.90
42479;DHT22;28110;47.080;9.476;2023-07-28T15:30:09;27.00;99.90
42479;DHT22;28110;47.080;9.476;2023-07-28T15:32:35;27.00;99.90
42479;DHT22;28110;47.080;9.476;2023-07-28T15:35:01;27.00;99.90